Terminal Aerodrome Forecast
Issued by NWS

Home | Current Version | Previous Version | Text Only | Print | Product List | Glossary On
Versions: 1 2 3 4 5 6 7 8 9 10 11 12 13 14 15 16 17 18 19 20 21 22 23 24 25 26 27 28 29 30 31 32
368
FTUS46 KLOX 260349 AAB
TAFLAX
TAF AMD
KLAX 260349Z 2604/2706 26008KT P6SM FEW008 BKN200
      TEMPO 2604/2606 BKN008
     FM260900 VRB05KT 4SM BR BKN008
     FM261400 VRB04KT 5SM BR BKN010
     FM261600 25006KT 6SM HZ SCT010 SCT130
     FM262000 26012KT P6SM SCT130 BKN200
     FM270400 26006KT P6SM SCT130 BKN200=

USA.gov is the U.S. government's official web portal to all federal, state and local government web resources and services.